sensor_id;sensor_type;location;lat;lon;timestamp;P1;durP1;ratioP1;P2;durP2;ratioP2
9090;SDS011;4581;42.416;25.598;2023-08-17T00:01:35;0.28;;;0.22;;
9090;SDS011;4581;42.416;25.598;2023-08-17T00:04:02;0.75;;;0.32;;
9090;SDS011;4581;42.416;25.598;2023-08-17T00:06:28;0.30;;;0.30;;
9090;SDS011;4581;42.416;25.598;2023-08-17T00:08:55;0.45;;;0.45;;
9090;SDS011;4581;42.416;25.598;2023-08-17T00:11:22;0.47;;;0.47;;
9090;SDS011;4581;42.416;25.598;2023-08-17T00:13:49;0.45;;;0.45;;
9090;SDS011;4581;42.416;25.598;2023-08-17T00:16:16;0.68;;;0.68;;
9090;SDS011;4581;42.416;25.598;2023-08-17T00:18:43;0.88;;;0.63;;
9090;SDS011;4581;42.416;25.598;2023-08-17T00:21:10;0.40;;;0.40;;
9090;SDS011;4581;42.416;25.598;2023-08-17T00:23:37;0.35;;;0.35;;
9090;SDS011;4581;42.416;25.598;2023-08-17T00:26:04;2.45;;;0.98;;
9090;SDS011;4581;42.416;25.598;2023-08-17T00:28:31;0.25;;;0.25;;
9090;SDS011;4581;42.416;25.598;2023-08-17T00:30:59;0.40;;;0.40;;
9090;SDS011;4581;42.416;25.598;2023-08-17T00:33:26;0.10;;;0.10;;
9090;SDS011;4581;42.416;25.598;2023-08-17T00:35:53;0.35;;;0.35;;
9090;SDS011;4581;42.416;25.598;2023-08-17T00:38:19;0.35;;;0.35;;
9090;SDS011;4581;42.416;25.598;2023-08-17T00:40:46;0.30;;;0.30;;
9090;SDS011;4581;42.416;25.598;2023-08-17T00:43:13;0.47;;;0.47;;
9090;SDS011;4581;42.416;25.598;2023-08-17T00:45:40;0.55;;;0.52;;
9090;SDS011;4581;42.416;25.598;2023-08-17T00:48:07;0.10;;;0.10;;
9090;SDS011;4581;42.416;25.598;2023-08-17T00:50:35;0.25;;;0.25;;
9090;SDS011;4581;42.416;25.598;2023-08-17T00:53:03;0.75;;;0.52;;
9090;SDS011;4581;42.416;25.598;2023-08-17T00:55:30;0.10;;;0.10;;
9090;SDS011;4581;42.416;25.598;2023-08-17T00:57:59;0.52;;;0.47;;
9090;SDS011;4581;42.416;25.598;2023-08-17T01:00:26;0.38;;;0.38;;
9090;SDS011;4581;42.416;25.598;2023-08-17T01:02:54;0.50;;;0.43;;
9090;SDS011;4581;42.416;25.598;2023-08-17T01:05:21;0.40;;;0.40;;
9090;SDS011;4581;42.416;25.598;2023-08-17T01:07:48;0.70;;;0.70;;
9090;SDS011;4581;42.416;25.598;2023-08-17T01:10:15;0.20;;;0.20;;
9090;SDS011;4581;42.416;25.598;2023-08-17T01:15:24;0.43;;;0.43;;
9090;SDS011;4581;42.416;25.598;2023-08-17T01:20:43;0.50;;;0.50;;
9090;SDS011;4581;42.416;25.598;2023-08-17T01:23:12;0.45;;;0.45;;
9090;SDS011;4581;42.416;25.598;2023-08-17T01:25:39;0.20;;;0.20;;
9090;SDS011;4581;42.416;25.598;2023-08-17T01:28:06;0.57;;;0.45;;
9090;SDS011;4581;42.416;25.598;2023-08-17T01:30:35;0.55;;;0.30;;
9090;SDS011;4581;42.416;25.598;2023-08-17T01:33:09;0.25;;;0.20;;
9090;SDS011;4581;42.416;25.598;2023-08-17T01:35:44;0.47;;;0.47;;
9090;SDS011;4581;42.416;25.598;2023-08-17T01:38:16;0.30;;;0.30;;
9090;SDS011;4581;42.416;25.598;2023-08-17T01:40:48;0.40;;;0.40;;
9090;SDS011;4581;42.416;25.598;2023-08-17T01:43:17;0.35;;;0.35;;
9090;SDS011;4581;42.416;25.598;2023-08-17T01:45:45;0.57;;;0.57;;
9090;SDS011;4581;42.416;25.598;2023-08-17T01:48:12;1.17;;;0.52;;
9090;SDS011;4581;42.416;25.598;2023-08-17T01:50:38;0.40;;;0.40;;
9090;SDS011;4581;42.416;25.598;2023-08-17T01:53:05;0.25;;;0.25;;
9090;SDS011;4581;42.416;25.598;2023-08-17T01:55:32;0.30;;;0.20;;
9090;SDS011;4581;42.416;25.598;2023-08-17T01:57:59;0.30;;;0.30;;
9090;SDS011;4581;42.416;25.598;2023-08-17T02:00:25;0.38;;;0.20;;
9090;SDS011;4581;42.416;25.598;2023-08-17T02:02:52;0.25;;;0.25;;
9090;SDS011;4581;42.416;25.598;2023-08-17T02:05:19;0.45;;;0.45;;
9090;SDS011;4581;42.416;25.598;2023-08-17T02:07:45;0.52;;;0.40;;
9090;SDS011;4581;42.416;25.598;2023-08-17T02:10:12;0.45;;;0.45;;
9090;SDS011;4581;42.416;25.598;2023-08-17T02:12:39;0.30;;;0.30;;
9090;SDS011;4581;42.416;25.598;2023-08-17T02:15:05;0.35;;;0.30;;
9090;SDS011;4581;42.416;25.598;2023-08-17T02:17:33;0.40;;;0.40;;
9090;SDS011;4581;42.416;25.598;2023-08-17T02:20:00;0.38;;;0.38;;
9090;SDS011;4581;42.416;25.598;2023-08-17T02:22:26;0.32;;;0.32;;
9090;SDS011;4581;42.416;25.598;2023-08-17T02:24:53;0.57;;;0.47;;
9090;SDS011;4581;42.416;25.598;2023-08-17T02:27:20;0.47;;;0.47;;
9090;SDS011;4581;42.416;25.598;2023-08-17T02:29:46;0.30;;;0.30;;
9090;SDS011;4581;42.416;25.598;2023-08-17T02:32:13;0.30;;;0.30;;
9090;SDS011;4581;42.416;25.598;2023-08-17T02:34:40;0.30;;;0.30;;
9090;SDS011;4581;42.416;25.598;2023-08-17T02:37:07;8.88;;;0.52;;
9090;SDS011;4581;42.416;25.598;2023-08-17T02:39:33;0.22;;;0.22;;
9090;SDS011;4581;42.416;25.598;2023-08-17T02:42:00;1.13;;;0.82;;
9090;SDS011;4581;42.416;25.598;2023-08-17T02:44:27;0.77;;;0.70;;
9090;SDS011;4581;42.416;25.598;2023-08-17T02:46:54;0.47;;;0.47;;
9090;SDS011;4581;42.416;25.598;2023-08-17T02:49:21;0.20;;;0.20;;
9090;SDS011;4581;42.416;25.598;2023-08-17T02:51:48;0.57;;;0.57;;
9090;SDS011;4581;42.416;25.598;2023-08-17T02:54:14;0.30;;;0.30;;
9090;SDS011;4581;42.416;25.598;2023-08-17T02:56:41;0.47;;;0.47;;
9090;SDS011;4581;42.416;25.598;2023-08-17T02:59:08;0.43;;;0.43;;
9090;SDS011;4581;42.416;25.598;2023-08-17T03:01:35;0.20;;;0.20;;
9090;SDS011;4581;42.416;25.598;2023-08-17T03:04:01;0.20;;;0.20;;
9090;SDS011;4581;42.416;25.598;2023-08-17T03:06:28;0.50;;;0.50;;
9090;SDS011;4581;42.416;25.598;2023-08-17T03:08:55;0.55;;;0.55;;
9090;SDS011;4581;42.416;25.598;2023-08-17T03:11:22;0.90;;;0.80;;
9090;SDS011;4581;42.416;25.598;2023-08-17T03:13:48;0.30;;;0.30;;
9090;SDS011;4581;42.416;25.598;2023-08-17T03:16:15;0.40;;;0.40;;
9090;SDS011;4581;42.416;25.598;2023-08-17T03:18:42;1.35;;;0.77;;
9090;SDS011;4581;42.416;25.598;2023-08-17T03:21:11;0.32;;;0.32;;
9090;SDS011;4581;42.416;25.598;2023-08-17T03:23:37;0.80;;;0.63;;
9090;SDS011;4581;42.416;25.598;2023-08-17T03:26:04;0.30;;;0.20;;
9090;SDS011;4581;42.416;25.598;2023-08-17T03:28:31;0.30;;;0.30;;
9090;SDS011;4581;42.416;25.598;2023-08-17T03:30:57;1.50;;;0.25;;
9090;SDS011;4581;42.416;25.598;2023-08-17T03:33:24;0.30;;;0.30;;
9090;SDS011;4581;42.416;25.598;2023-08-17T03:35:51;0.20;;;0.20;;
9090;SDS011;4581;42.416;25.598;2023-08-17T03:38:18;0.60;;;0.60;;
9090;SDS011;4581;42.416;25.598;2023-08-17T03:40:45;0.85;;;0.45;;
9090;SDS011;4581;42.416;25.598;2023-08-17T03:43:12;0.35;;;0.35;;
9090;SDS011;4581;42.416;25.598;2023-08-17T03:45:41;0.88;;;0.43;;
9090;SDS011;4581;42.416;25.598;2023-08-17T03:48:09;0.95;;;0.77;;
9090;SDS011;4581;42.416;25.598;2023-08-17T03:50:36;0.47;;;0.47;;
9090;SDS011;4581;42.416;25.598;2023-08-17T03:53:02;0.38;;;0.38;;
9090;SDS011;4581;42.416;25.598;2023-08-17T03:55:29;0.50;;;0.50;;
9090;SDS011;4581;42.416;25.598;2023-08-17T03:57:56;0.60;;;0.60;;
9090;SDS011;4581;42.416;25.598;2023-08-17T04:00:23;0.40;;;0.40;;
9090;SDS011;4581;42.416;25.598;2023-08-17T04:02:50;0.45;;;0.45;;
9090;SDS011;4581;42.416;25.598;2023-08-17T04:05:17;0.32;;;0.32;;
9090;SDS011;4581;42.416;25.598;2023-08-17T04:07:43;0.43;;;0.43;;
9090;SDS011;4581;42.416;25.598;2023-08-17T04:10:10;0.57;;;0.57;;
9090;SDS011;4581;42.416;25.598;2023-08-17T04:12:37;0.50;;;0.50;;
9090;SDS011;4581;42.416;25.598;2023-08-17T04:15:03;0.52;;;0.52;;
9090;SDS011;4581;42.416;25.598;2023-08-17T04:17:31;0.90;;;0.50;;
9090;SDS011;4581;42.416;25.598;2023-08-17T04:19:57;0.20;;;0.17;;
9090;SDS011;4581;42.416;25.598;2023-08-17T04:22:24;0.93;;;0.75;;
9090;SDS011;4581;42.416;25.598;2023-08-17T04:24:51;0.20;;;0.20;;
9090;SDS011;4581;42.416;25.598;2023-08-17T04:27:18;0.40;;;0.40;;
9090;SDS011;4581;42.416;25.598;2023-08-17T04:29:45;0.68;;;0.50;;
9090;SDS011;4581;42.416;25.598;2023-08-17T04:32:15;0.25;;;0.25;;
9090;SDS011;4581;42.416;25.598;2023-08-17T04:34:43;0.30;;;0.30;;
9090;SDS011;4581;42.416;25.598;2023-08-17T04:37:11;0.20;;;0.20;;
9090;SDS011;4581;42.416;25.598;2023-08-17T04:39:38;6.13;;;0.68;;
9090;SDS011;4581;42.416;25.598;2023-08-17T04:42:04;0.52;;;0.52;;
9090;SDS011;4581;42.416;25.598;2023-08-17T04:44:31;0.57;;;0.57;;
9090;SDS011;4581;42.416;25.598;2023-08-17T04:46:58;1.33;;;0.57;;
9090;SDS011;4581;42.416;25.598;2023-08-17T04:49:25;0.15;;;0.15;;
9090;SDS011;4581;42.416;25.598;2023-08-17T04:51:52;0.20;;;0.20;;
9090;SDS011;4581;42.416;25.598;2023-08-17T04:54:19;0.20;;;0.20;;
9090;SDS011;4581;42.416;25.598;2023-08-17T04:56:46;0.65;;;0.30;;
9090;SDS011;4581;42.416;25.598;2023-08-17T04:59:13;0.90;;;0.73;;
9090;SDS011;4581;42.416;25.598;2023-08-17T05:01:39;0.88;;;0.50;;
9090;SDS011;4581;42.416;25.598;2023-08-17T05:04:07;0.22;;;0.22;;
9090;SDS011;4581;42.416;25.598;2023-08-17T05:06:34;0.32;;;0.32;;
9090;SDS011;4581;42.416;25.598;2023-08-17T05:09:01;0.60;;;0.60;;
9090;SDS011;4581;42.416;25.598;2023-08-17T05:11:29;0.22;;;0.22;;
9090;SDS011;4581;42.416;25.598;2023-08-17T05:13:56;0.65;;;0.65;;
9090;SDS011;4581;42.416;25.598;2023-08-17T05:16:23;0.60;;;0.60;;
9090;SDS011;4581;42.416;25.598;2023-08-17T05:18:50;0.30;;;0.30;;
9090;SDS011;4581;42.416;25.598;2023-08-17T05:21:17;0.57;;;0.57;;
9090;SDS011;4581;42.416;25.598;2023-08-17T05:23:43;0.55;;;0.55;;
9090;SDS011;4581;42.416;25.598;2023-08-17T05:26:10;0.40;;;0.40;;
9090;SDS011;4581;42.416;25.598;2023-08-17T05:28:37;0.43;;;0.38;;
9090;SDS011;4581;42.416;25.598;2023-08-17T05:31:07;0.95;;;0.50;;
9090;SDS011;4581;42.416;25.598;2023-08-17T05:33:33;0.60;;;0.47;;
9090;SDS011;4581;42.416;25.598;2023-08-17T05:36:00;0.68;;;0.68;;
9090;SDS011;4581;42.416;25.598;2023-08-17T05:38:27;0.77;;;0.73;;
9090;SDS011;4581;42.416;25.598;2023-08-17T05:40:54;1.23;;;0.70;;
9090;SDS011;4581;42.416;25.598;2023-08-17T05:43:25;1.52;;;1.00;;
9090;SDS011;4581;42.416;25.598;2023-08-17T05:45:52;0.20;;;0.20;;
9090;SDS011;4581;42.416;25.598;2023-08-17T05:48:19;0.22;;;0.22;;
9090;SDS011;4581;42.416;25.598;2023-08-17T05:50:49;0.22;;;0.22;;
9090;SDS011;4581;42.416;25.598;2023-08-17T05:53:16;0.60;;;0.60;;
9090;SDS011;4581;42.416;25.598;2023-08-17T05:55:43;0.98;;;0.47;;
9090;SDS011;4581;42.416;25.598;2023-08-17T05:58:10;0.85;;;0.85;;
9090;SDS011;4581;42.416;25.598;2023-08-17T06:00:36;0.85;;;0.85;;
9090;SDS011;4581;42.416;25.598;2023-08-17T06:03:04;0.65;;;0.65;;
9090;SDS011;4581;42.416;25.598;2023-08-17T06:05:31;1.17;;;0.90;;
9090;SDS011;4581;42.416;25.598;2023-08-17T06:07:57;0.52;;;0.52;;
9090;SDS011;4581;42.416;25.598;2023-08-17T06:10:24;0.30;;;0.30;;
9090;SDS011;4581;42.416;25.598;2023-08-17T06:12:52;0.40;;;0.40;;
9090;SDS011;4581;42.416;25.598;2023-08-17T06:15:22;0.40;;;0.40;;
9090;SDS011;4581;42.416;25.598;2023-08-17T06:17:50;0.52;;;0.52;;
9090;SDS011;4581;42.416;25.598;2023-08-17T06:20:17;0.50;;;0.50;;
9090;SDS011;4581;42.416;25.598;2023-08-17T06:22:44;0.63;;;0.63;;
9090;SDS011;4581;42.416;25.598;2023-08-17T06:25:11;0.55;;;0.55;;
9090;SDS011;4581;42.416;25.598;2023-08-17T06:27:38;0.68;;;0.68;;
9090;SDS011;4581;42.416;25.598;2023-08-17T06:30:05;5.15;;;0.82;;
9090;SDS011;4581;42.416;25.598;2023-08-17T06:32:34;0.70;;;0.70;;
9090;SDS011;4581;42.416;25.598;2023-08-17T06:35:01;0.57;;;0.57;;
9090;SDS011;4581;42.416;25.598;2023-08-17T06:37:27;0.40;;;0.40;;
9090;SDS011;4581;42.416;25.598;2023-08-17T06:39:54;0.70;;;0.68;;
9090;SDS011;4581;42.416;25.598;2023-08-17T06:42:21;0.65;;;0.60;;
9090;SDS011;4581;42.416;25.598;2023-08-17T06:44:48;1.00;;;0.73;;
9090;SDS011;4581;42.416;25.598;2023-08-17T06:47:15;0.63;;;0.63;;
9090;SDS011;4581;42.416;25.598;2023-08-17T06:49:41;0.52;;;0.52;;
9090;SDS011;4581;42.416;25.598;2023-08-17T06:52:08;0.52;;;0.52;;
9090;SDS011;4581;42.416;25.598;2023-08-17T06:54:35;0.50;;;0.50;;
9090;SDS011;4581;42.416;25.598;2023-08-17T06:57:02;0.47;;;0.38;;
9090;SDS011;4581;42.416;25.598;2023-08-17T06:59:29;0.25;;;0.25;;
9090;SDS011;4581;42.416;25.598;2023-08-17T07:01:56;0.32;;;0.32;;
9090;SDS011;4581;42.416;25.598;2023-08-17T07:04:23;0.52;;;0.52;;
9090;SDS011;4581;42.416;25.598;2023-08-17T07:06:50;0.45;;;0.40;;
9090;SDS011;4581;42.416;25.598;2023-08-17T07:09:17;0.43;;;0.43;;
9090;SDS011;4581;42.416;25.598;2023-08-17T07:11:44;0.20;;;0.20;;
9090;SDS011;4581;42.416;25.598;2023-08-17T07:14:10;0.43;;;0.43;;
9090;SDS011;4581;42.416;25.598;2023-08-17T07:16:37;0.70;;;0.70;;
9090;SDS011;4581;42.416;25.598;2023-08-17T07:19:04;0.28;;;0.28;;
9090;SDS011;4581;42.416;25.598;2023-08-17T07:21:30;0.35;;;0.35;;
9090;SDS011;4581;42.416;25.598;2023-08-17T07:23:57;0.20;;;0.20;;
9090;SDS011;4581;42.416;25.598;2023-08-17T07:26:24;0.98;;;0.70;;
9090;SDS011;4581;42.416;25.598;2023-08-17T07:28:51;0.40;;;0.40;;
9090;SDS011;4581;42.416;25.598;2023-08-17T07:31:17;0.30;;;0.30;;
9090;SDS011;4581;42.416;25.598;2023-08-17T07:33:44;1.52;;;0.70;;
9090;SDS011;4581;42.416;25.598;2023-08-17T07:36:11;0.82;;;0.82;;
9090;SDS011;4581;42.416;25.598;2023-08-17T07:38:38;0.65;;;0.63;;
9090;SDS011;4581;42.416;25.598;2023-08-17T07:41:04;0.60;;;0.60;;
9090;SDS011;4581;42.416;25.598;2023-08-17T07:43:31;0.80;;;0.77;;
9090;SDS011;4581;42.416;25.598;2023-08-17T07:45:58;0.88;;;0.88;;
9090;SDS011;4581;42.416;25.598;2023-08-17T07:48:25;0.50;;;0.50;;
9090;SDS011;4581;42.416;25.598;2023-08-17T07:50:52;0.57;;;0.57;;
9090;SDS011;4581;42.416;25.598;2023-08-17T07:53:19;0.38;;;0.38;;
9090;SDS011;4581;42.416;25.598;2023-08-17T07:55:46;0.40;;;0.38;;
9090;SDS011;4581;42.416;25.598;2023-08-17T07:58:14;0.63;;;0.50;;
9090;SDS011;4581;42.416;25.598;2023-08-17T08:00:41;0.57;;;0.57;;
9090;SDS011;4581;42.416;25.598;2023-08-17T08:03:08;0.65;;;0.65;;
9090;SDS011;4581;42.416;25.598;2023-08-17T08:05:36;1.55;;;1.10;;
9090;SDS011;4581;42.416;25.598;2023-08-17T08:08:02;0.40;;;0.40;;
9090;SDS011;4581;42.416;25.598;2023-08-17T08:10:29;1.42;;;0.98;;
9090;SDS011;4581;42.416;25.598;2023-08-17T08:12:56;0.68;;;0.68;;
9090;SDS011;4581;42.416;25.598;2023-08-17T08:15:23;0.82;;;0.82;;
9090;SDS011;4581;42.416;25.598;2023-08-17T08:17:50;1.40;;;1.13;;
9090;SDS011;4581;42.416;25.598;2023-08-17T08:20:17;0.77;;;0.77;;
9090;SDS011;4581;42.416;25.598;2023-08-17T08:22:43;0.60;;;0.60;;
9090;SDS011;4581;42.416;25.598;2023-08-17T08:25:10;0.65;;;0.65;;
9090;SDS011;4581;42.416;25.598;2023-08-17T08:27:37;0.80;;;0.80;;
9090;SDS011;4581;42.416;25.598;2023-08-17T08:30:05;0.50;;;0.50;;
9090;SDS011;4581;42.416;25.598;2023-08-17T08:32:32;0.73;;;0.73;;
9090;SDS011;4581;42.416;25.598;2023-08-17T08:34:59;4.55;;;0.60;;
9090;SDS011;4581;42.416;25.598;2023-08-17T08:37:26;0.88;;;0.88;;
9090;SDS011;4581;42.416;25.598;2023-08-17T08:39:53;1.10;;;0.98;;
9090;SDS011;4581;42.416;25.598;2023-08-17T08:42:22;0.55;;;0.55;;
9090;SDS011;4581;42.416;25.598;2023-08-17T08:44:50;3.05;;;1.02;;
9090;SDS011;4581;42.416;25.598;2023-08-17T08:47:17;1.08;;;1.05;;
9090;SDS011;4581;42.416;25.598;2023-08-17T08:49:49;0.85;;;0.85;;
9090;SDS011;4581;42.416;25.598;2023-08-17T08:52:23;0.80;;;0.73;;
9090;SDS011;4581;42.416;25.598;2023-08-17T08:54:59;0.70;;;0.70;;
9090;SDS011;4581;42.416;25.598;2023-08-17T08:57:38;0.85;;;0.85;;
9090;SDS011;4581;42.416;25.598;2023-08-17T09:00:06;0.57;;;0.57;;
9090;SDS011;4581;42.416;25.598;2023-08-17T09:02:34;1.23;;;1.15;;
9090;SDS011;4581;42.416;25.598;2023-08-17T09:05:01;1.15;;;1.05;;
9090;SDS011;4581;42.416;25.598;2023-08-17T09:07:29;0.40;;;0.40;;
9090;SDS011;4581;42.416;25.598;2023-08-17T09:09:56;0.98;;;0.88;;
9090;SDS011;4581;42.416;25.598;2023-08-17T09:12:23;1.27;;;1.17;;
9090;SDS011;4581;42.416;25.598;2023-08-17T09:15:04;0.90;;;0.90;;
9090;SDS011;4581;42.416;25.598;2023-08-17T09:17:31;0.60;;;0.60;;
9090;SDS011;4581;42.416;25.598;2023-08-17T09:20:00;0.47;;;0.47;;
9090;SDS011;4581;42.416;25.598;2023-08-17T09:22:41;0.57;;;0.57;;
9090;SDS011;4581;42.416;25.598;2023-08-17T09:25:10;0.70;;;0.70;;
9090;SDS011;4581;42.416;25.598;2023-08-17T09:27:38;0.68;;;0.68;;
9090;SDS011;4581;42.416;25.598;2023-08-17T09:30:06;0.82;;;0.82;;
9090;SDS011;4581;42.416;25.598;2023-08-17T09:32:36;1.27;;;1.17;;
9090;SDS011;4581;42.416;25.598;2023-08-17T09:35:04;0.75;;;0.75;;
9090;SDS011;4581;42.416;25.598;2023-08-17T09:37:34;0.47;;;0.47;;
9090;SDS011;4581;42.416;25.598;2023-08-17T09:40:01;1.17;;;1.08;;
9090;SDS011;4581;42.416;25.598;2023-08-17T09:42:29;1.13;;;1.02;;
9090;SDS011;4581;42.416;25.598;2023-08-17T09:45:00;1.23;;;1.13;;
9090;SDS011;4581;42.416;25.598;2023-08-17T09:47:27;1.20;;;0.80;;
9090;SDS011;4581;42.416;25.598;2023-08-17T09:49:55;0.93;;;0.77;;
9090;SDS011;4581;42.416;25.598;2023-08-17T09:52:22;0.65;;;0.65;;
9090;SDS011;4581;42.416;25.598;2023-08-17T09:54:52;0.80;;;0.80;;
9090;SDS011;4581;42.416;25.598;2023-08-17T09:57:21;0.55;;;0.55;;
9090;SDS011;4581;42.416;25.598;2023-08-17T09:59:49;0.70;;;0.70;;
9090;SDS011;4581;42.416;25.598;2023-08-17T10:02:21;0.77;;;0.77;;
9090;SDS011;4581;42.416;25.598;2023-08-17T10:04:53;0.88;;;0.85;;
9090;SDS011;4581;42.416;25.598;2023-08-17T10:07:20;0.63;;;0.60;;
9090;SDS011;4581;42.416;25.598;2023-08-17T10:09:55;0.52;;;0.52;;
9090;SDS011;4581;42.416;25.598;2023-08-17T10:12:27;0.80;;;0.80;;
9090;SDS011;4581;42.416;25.598;2023-08-17T10:15:00;0.88;;;0.65;;
9090;SDS011;4581;42.416;25.598;2023-08-17T10:17:35;0.57;;;0.57;;
9090;SDS011;4581;42.416;25.598;2023-08-17T10:20:08;0.90;;;0.90;;
9090;SDS011;4581;42.416;25.598;2023-08-17T10:22:39;3.30;;;0.90;;
9090;SDS011;4581;42.416;25.598;2023-08-17T10:25:11;1.40;;;1.05;;
9090;SDS011;4581;42.416;25.598;2023-08-17T10:27:40;0.70;;;0.70;;
9090;SDS011;4581;42.416;25.598;2023-08-17T10:30:08;1.00;;;0.90;;
9090;SDS011;4581;42.416;25.598;2023-08-17T10:32:36;0.77;;;0.77;;
9090;SDS011;4581;42.416;25.598;2023-08-17T10:35:04;0.80;;;0.80;;
9090;SDS011;4581;42.416;25.598;2023-08-17T10:37:32;1.02;;;1.02;;
9090;SDS011;4581;42.416;25.598;2023-08-17T10:40:00;1.13;;;1.05;;
9090;SDS011;4581;42.416;25.598;2023-08-17T10:42:33;1.55;;;1.00;;
9090;SDS011;4581;42.416;25.598;2023-08-17T10:45:24;0.55;;;0.55;;
9090;SDS011;4581;42.416;25.598;2023-08-17T10:47:48;0.70;;;0.70;;
9090;SDS011;4581;42.416;25.598;2023-08-17T10:50:24;1.50;;;1.17;;
9090;SDS011;4581;42.416;25.598;2023-08-17T10:52:53;0.40;;;0.40;;
9090;SDS011;4581;42.416;25.598;2023-08-17T10:55:42;0.70;;;0.70;;
9090;SDS011;4581;42.416;25.598;2023-08-17T10:58:11;0.70;;;0.70;;
9090;SDS011;4581;42.416;25.598;2023-08-17T11:00:41;1.45;;;1.17;;
9090;SDS011;4581;42.416;25.598;2023-08-17T11:03:17;0.65;;;0.65;;
9090;SDS011;4581;42.416;25.598;2023-08-17T11:05:45;0.80;;;0.80;;
9090;SDS011;4581;42.416;25.598;2023-08-17T11:08:34;0.68;;;0.60;;
9090;SDS011;4581;42.416;25.598;2023-08-17T11:11:12;1.17;;;0.95;;
9090;SDS011;4581;42.416;25.598;2023-08-17T11:13:43;0.63;;;0.63;;
9090;SDS011;4581;42.416;25.598;2023-08-17T11:16:11;0.70;;;0.45;;
9090;SDS011;4581;42.416;25.598;2023-08-17T11:18:43;0.80;;;0.65;;
9090;SDS011;4581;42.416;25.598;2023-08-17T11:21:13;0.45;;;0.45;;
9090;SDS011;4581;42.416;25.598;2023-08-17T11:23:44;0.70;;;0.70;;
9090;SDS011;4581;42.416;25.598;2023-08-17T11:26:10;0.60;;;0.60;;
9090;SDS011;4581;42.416;25.598;2023-08-17T11:28:37;0.68;;;0.68;;
9090;SDS011;4581;42.416;25.598;2023-08-17T11:31:10;1.25;;;1.02;;
9090;SDS011;4581;42.416;25.598;2023-08-17T11:33:37;0.55;;;0.55;;
9090;SDS011;4581;42.416;25.598;2023-08-17T11:36:06;1.00;;;0.65;;
9090;SDS011;4581;42.416;25.598;2023-08-17T11:38:35;1.52;;;0.90;;
9090;SDS011;4581;42.416;25.598;2023-08-17T11:41:07;0.55;;;0.55;;
9090;SDS011;4581;42.416;25.598;2023-08-17T11:43:36;0.50;;;0.50;;
9090;SDS011;4581;42.416;25.598;2023-08-17T11:46:03;0.70;;;0.70;;
9090;SDS011;4581;42.416;25.598;2023-08-17T11:48:31;0.75;;;0.75;;
9090;SDS011;4581;42.416;25.598;2023-08-17T11:51:01;0.65;;;0.65;;
9090;SDS011;4581;42.416;25.598;2023-08-17T11:53:35;1.10;;;0.70;;
9090;SDS011;4581;42.416;25.598;2023-08-17T11:56:02;1.13;;;1.13;;
9090;SDS011;4581;42.416;25.598;2023-08-17T11:58:39;0.65;;;0.65;;
9090;SDS011;4581;42.416;25.598;2023-08-17T12:01:10;0.75;;;0.75;;
9090;SDS011;4581;42.416;25.598;2023-08-17T12:03:38;0.80;;;0.80;;
9090;SDS011;4581;42.416;25.598;2023-08-17T12:06:07;1.10;;;1.10;;
9090;SDS011;4581;42.416;25.598;2023-08-17T12:08:35;0.88;;;0.82;;
9090;SDS011;4581;42.416;25.598;2023-08-17T12:11:02;0.50;;;0.50;;
9090;SDS011;4581;42.416;25.598;2023-08-17T12:13:33;0.40;;;0.40;;
9090;SDS011;4581;42.416;25.598;2023-08-17T12:16:00;1.23;;;1.23;;
9090;SDS011;4581;42.416;25.598;2023-08-17T12:18:28;0.70;;;0.70;;
9090;SDS011;4581;42.416;25.598;2023-08-17T12:20:55;0.73;;;0.73;;
9090;SDS011;4581;42.416;25.598;2023-08-17T12:23:22;0.80;;;0.80;;
9090;SDS011;4581;42.416;25.598;2023-08-17T12:25:55;0.75;;;0.68;;
9090;SDS011;4581;42.416;25.598;2023-08-17T12:28:22;1.98;;;1.33;;
9090;SDS011;4581;42.416;25.598;2023-08-17T12:31:00;0.73;;;0.73;;
9090;SDS011;4581;42.416;25.598;2023-08-17T12:33:29;1.25;;;1.10;;
9090;SDS011;4581;42.416;25.598;2023-08-17T12:35:56;0.55;;;0.55;;
9090;SDS011;4581;42.416;25.598;2023-08-17T12:38:23;1.02;;;1.02;;
9090;SDS011;4581;42.416;25.598;2023-08-17T12:40:51;0.52;;;0.52;;
9090;SDS011;4581;42.416;25.598;2023-08-17T12:43:17;0.80;;;0.80;;
9090;SDS011;4581;42.416;25.598;2023-08-17T12:45:44;0.88;;;0.88;;
9090;SDS011;4581;42.416;25.598;2023-08-17T12:48:11;1.20;;;0.90;;
9090;SDS011;4581;42.416;25.598;2023-08-17T12:50:37;1.10;;;1.00;;
9090;SDS011;4581;42.416;25.598;2023-08-17T12:53:07;0.82;;;0.82;;
9090;SDS011;4581;42.416;25.598;2023-08-17T12:55:34;0.80;;;0.80;;
9090;SDS011;4581;42.416;25.598;2023-08-17T12:58:01;0.98;;;0.98;;
9090;SDS011;4581;42.416;25.598;2023-08-17T13:00:28;0.70;;;0.70;;
9090;SDS011;4581;42.416;25.598;2023-08-17T13:02:55;0.82;;;0.82;;
9090;SDS011;4581;42.416;25.598;2023-08-17T13:05:21;1.00;;;1.00;;
9090;SDS011;4581;42.416;25.598;2023-08-17T13:07:48;1.13;;;1.02;;
9090;SDS011;4581;42.416;25.598;2023-08-17T13:10:15;1.33;;;1.23;;
9090;SDS011;4581;42.416;25.598;2023-08-17T13:12:42;0.65;;;0.65;;
9090;SDS011;4581;42.416;25.598;2023-08-17T13:15:09;0.73;;;0.73;;
9090;SDS011;4581;42.416;25.598;2023-08-17T13:17:35;0.77;;;0.77;;
9090;SDS011;4581;42.416;25.598;2023-08-17T13:20:05;0.90;;;0.73;;
9090;SDS011;4581;42.416;25.598;2023-08-17T13:22:32;0.93;;;0.93;;
9090;SDS011;4581;42.416;25.598;2023-08-17T13:24:59;0.80;;;0.80;;
9090;SDS011;4581;42.416;25.598;2023-08-17T13:27:27;1.75;;;1.65;;
9090;SDS011;4581;42.416;25.598;2023-08-17T13:29:54;1.08;;;0.98;;
9090;SDS011;4581;42.416;25.598;2023-08-17T13:32:21;1.20;;;1.10;;
9090;SDS011;4581;42.416;25.598;2023-08-17T13:34:47;1.02;;;0.93;;
9090;SDS011;4581;42.416;25.598;2023-08-17T13:37:14;0.75;;;0.70;;
9090;SDS011;4581;42.416;25.598;2023-08-17T13:39:42;1.10;;;1.00;;
9090;SDS011;4581;42.416;25.598;2023-08-17T13:42:10;2.33;;;1.70;;
9090;SDS011;4581;42.416;25.598;2023-08-17T13:44:36;0.82;;;0.82;;
9090;SDS011;4581;42.416;25.598;2023-08-17T13:47:03;1.00;;;0.80;;
9090;SDS011;4581;42.416;25.598;2023-08-17T13:49:30;1.15;;;0.90;;
9090;SDS011;4581;42.416;25.598;2023-08-17T13:51:57;0.60;;;0.60;;
9090;SDS011;4581;42.416;25.598;2023-08-17T13:54:23;1.35;;;1.25;;
9090;SDS011;4581;42.416;25.598;2023-08-17T13:56:51;2.85;;;1.90;;
9090;SDS011;4581;42.416;25.598;2023-08-17T13:59:17;1.02;;;1.02;;
9090;SDS011;4581;42.416;25.598;2023-08-17T14:01:44;1.85;;;1.25;;
9090;SDS011;4581;42.416;25.598;2023-08-17T14:04:11;0.88;;;0.88;;
9090;SDS011;4581;42.416;25.598;2023-08-17T14:06:39;1.02;;;1.00;;
9090;SDS011;4581;42.416;25.598;2023-08-17T14:09:06;1.13;;;0.82;;
9090;SDS011;4581;42.416;25.598;2023-08-17T14:11:33;1.65;;;1.55;;
9090;SDS011;4581;42.416;25.598;2023-08-17T14:14:00;0.93;;;0.93;;
9090;SDS011;4581;42.416;25.598;2023-08-17T14:16:27;0.88;;;0.68;;
9090;SDS011;4581;42.416;25.598;2023-08-17T14:18:54;0.88;;;0.88;;
9090;SDS011;4581;42.416;25.598;2023-08-17T14:21:21;0.80;;;0.80;;
9090;SDS011;4581;42.416;25.598;2023-08-17T14:23:48;1.25;;;1.15;;
9090;SDS011;4581;42.416;25.598;2023-08-17T14:26:15;1.23;;;0.88;;
9090;SDS011;4581;42.416;25.598;2023-08-17T14:28:42;1.33;;;1.23;;
9090;SDS011;4581;42.416;25.598;2023-08-17T14:31:10;1.08;;;1.08;;
9090;SDS011;4581;42.416;25.598;2023-08-17T14:33:44;2.05;;;1.85;;
9090;SDS011;4581;42.416;25.598;2023-08-17T14:36:14;0.90;;;0.90;;
9090;SDS011;4581;42.416;25.598;2023-08-17T14:38:45;1.92;;;1.38;;
9090;SDS011;4581;42.416;25.598;2023-08-17T14:41:12;1.17;;;1.08;;
9090;SDS011;4581;42.416;25.598;2023-08-17T14:43:39;1.42;;;1.20;;
9090;SDS011;4581;42.416;25.598;2023-08-17T14:46:05;0.70;;;0.70;;
9090;SDS011;4581;42.416;25.598;2023-08-17T14:48:32;1.00;;;0.93;;
9090;SDS011;4581;42.416;25.598;2023-08-17T14:50:59;3.30;;;1.92;;
9090;SDS011;4581;42.416;25.598;2023-08-17T14:53:26;2.50;;;2.03;;
9090;SDS011;4581;42.416;25.598;2023-08-17T14:55:53;3.47;;;3.17;;
9090;SDS011;4581;42.416;25.598;2023-08-17T14:58:21;2.25;;;1.95;;
9090;SDS011;4581;42.416;25.598;2023-08-17T15:00:48;3.83;;;2.58;;
9090;SDS011;4581;42.416;25.598;2023-08-17T15:03:14;4.78;;;4.28;;
9090;SDS011;4581;42.416;25.598;2023-08-17T15:05:41;4.30;;;2.97;;
9090;SDS011;4581;42.416;25.598;2023-08-17T15:08:08;1.98;;;1.85;;
9090;SDS011;4581;42.416;25.598;2023-08-17T15:10:34;3.20;;;2.40;;